Time;durP1;ratioP1;P1;durP2;ratioP2;P2;SDS_P1;SDS_P2;PMS_P1;PMS_P2;Temp;Humidity;BMP_temperature;BMP_pressure;BME280_temperature;BME280_humidity;BME280_pressure;Samples;Min_cycle;Max_cycle;Signal;HPM_P1;HPM_P2
2024/03/17 00:00:23;;;;;;;12.77;4.55;;;5.80;1.00;;;;;;5087742;28;20237;-72
2024/03/17 00:02:50;;;;;;;6.78;2.60;;;5.80;1.00;;;;;;5087053;28;20243;-73
2024/03/17 00:05:18;;;;;;;11.65;3.75;;;5.80;1.00;;;;;;5086058;28;20248;-72
2024/03/17 00:07:46;;;;;;;9.82;3.17;;;5.80;1.00;;;;;;5088917;27;20240;-71
2024/03/17 00:10:12;;;;;;;10.27;3.13;;;5.80;1.00;;;;;;5084341;28;20322;-71
2024/03/17 00:12:39;;;;;;;7.20;2.70;;;5.70;1.00;;;;;;5085637;28;20863;-72
2024/03/17 00:15:06;;;;;;;8.18;2.83;;;5.70;1.00;;;;;;5087085;28;20545;-72
2024/03/17 00:17:33;;;;;;;8.60;2.30;;;5.70;1.00;;;;;;5085963;28;21047;-73
2024/03/17 00:20:03;;;;;;;13.40;3.92;;;5.70;1.00;;;;;;5092709;27;20959;-72
2024/03/17 00:22:35;;;;;;;10.00;4.82;;;5.70;1.00;;;;;;5085559;28;20345;-73
2024/03/17 00:25:03;;;;;;;11.77;2.65;;;5.70;1.00;;;;;;5088846;28;20249;-72
2024/03/17 00:27:30;;;;;;;10.38;3.47;;;5.70;1.00;;;;;;5090128;28;20231;-72
2024/03/17 00:29:56;;;;;;;13.57;3.08;;;5.70;1.00;;;;;;5092288;27;20247;-72
2024/03/17 00:32:23;;;;;;;10.40;3.60;;;5.70;1.00;;;;;;5102186;27;20366;-72
2024/03/17 00:34:49;;;;;;;8.60;3.17;;;5.70;1.00;;;;;;5105442;27;20245;-72
2024/03/17 00:37:17;;;;;;;10.93;2.90;;;5.60;1.00;;;;;;5098209;27;20251;-72
2024/03/17 00:39:43;;;;;;;8.82;2.72;;;5.60;1.00;;;;;;5110948;27;20457;-70
2024/03/17 00:42:13;;;;;;;8.70;2.75;;;5.60;1.00;;;;;;5112647;27;20239;-71
2024/03/17 00:44:39;;;;;;;7.07;3.72;;;5.60;1.00;;;;;;5103402;27;20833;-70
2024/03/17 00:47:08;;;;;;;8.90;2.40;;;5.60;1.00;;;;;;5109416;27;20238;-73
2024/03/17 00:49:34;;;;;;;7.63;2.85;;;5.60;1.00;;;;;;5109880;27;20450;-72
2024/03/17 00:52:04;;;;;;;8.52;2.72;;;5.60;1.00;;;;;;5095809;27;20335;-70
2024/03/17 00:54:30;;;;;;;8.10;2.78;;;5.50;1.00;;;;;;5114569;27;20255;-71
2024/03/17 00:56:57;;;;;;;10.05;3.75;;;5.50;1.00;;;;;;5111816;27;20240;-71
2024/03/17 00:59:25;;;;;;;7.70;2.83;;;5.50;1.00;;;;;;5110287;27;20277;-70
2024/03/17 01:01:52;;;;;;;7.40;2.72;;;5.50;1.00;;;;;;5093099;27;20780;-72
2024/03/17 01:04:17;;;;;;;5.88;2.78;;;5.50;1.00;;;;;;5110326;27;20318;-70
2024/03/17 01:06:46;;;;;;;16.20;3.40;;;5.50;1.00;;;;;;5095306;27;20619;-70
2024/03/17 01:09:12;;;;;;;11.30;2.83;;;5.50;1.00;;;;;;5090961;28;20455;-82
2024/03/17 01:11:39;;;;;;;14.77;4.10;;;5.50;1.00;;;;;;5091365;28;20240;-70
2024/03/17 01:14:08;;;;;;;7.78;3.10;;;5.50;1.00;;;;;;5090843;28;20585;-69
2024/03/17 01:16:37;;;;;;;9.98;3.53;;;5.40;1.00;;;;;;5091692;28;20243;-70
2024/03/17 01:19:03;;;;;;;7.15;2.80;;;5.40;1.00;;;;;;5097415;27;20227;-70
2024/03/17 01:21:30;;;;;;;9.73;3.50;;;5.50;1.00;;;;;;5109185;27;20617;-71
2024/03/17 01:23:56;;;;;;;8.27;2.55;;;5.40;1.00;;;;;;5111590;27;20453;-70
2024/03/17 01:26:23;;;;;;;8.40;3.40;;;5.40;1.00;;;;;;5107726;27;20236;-69
2024/03/17 01:28:50;;;;;;;9.45;2.92;;;5.40;1.00;;;;;;5091733;28;20459;-70
2024/03/17 01:31:16;;;;;;;9.68;3.22;;;5.30;1.00;;;;;;5098789;27;20991;-77
2024/03/17 01:33:44;;;;;;;8.50;2.85;;;5.30;1.00;;;;;;5088404;28;20243;-69
2024/03/17 01:36:11;;;;;;;8.02;2.38;;;5.30;1.00;;;;;;5111868;27;20321;-70
2024/03/17 01:38:37;;;;;;;11.57;3.00;;;5.30;1.00;;;;;;5096662;27;20244;-75
2024/03/17 01:41:05;;;;;;;7.60;2.80;;;5.30;1.00;;;;;;5087896;28;20354;-72
2024/03/17 01:43:31;;;;;;;11.20;3.55;;;5.20;1.00;;;;;;5099890;27;20451;-74
2024/03/17 01:46:00;;;;;;;11.30;3.13;;;5.20;1.00;;;;;;5090430;28;20720;-74
2024/03/17 01:48:26;;;;;;;7.97;2.60;;;5.20;1.00;;;;;;5108143;27;20480;-73
2024/03/17 01:50:57;;;;;;;10.27;3.05;;;5.20;1.00;;;;;;5110267;27;20267;-74
2024/03/17 01:53:25;;;;;;;14.18;3.78;;;5.20;1.00;;;;;;5111826;27;20239;-74
2024/03/17 01:55:53;;;;;;;8.05;3.10;;;5.20;1.00;;;;;;5104273;27;20247;-74
2024/03/17 01:58:20;;;;;;;8.20;2.25;;;5.20;1.00;;;;;;5089709;28;20240;-75
2024/03/17 02:00:47;;;;;;;11.20;2.90;;;5.20;1.00;;;;;;5088906;28;20246;-73
2024/03/17 02:03:13;;;;;;;7.93;2.47;;;5.10;1.00;;;;;;5090041;28;20331;-73
2024/03/17 02:05:40;;;;;;;13.05;3.53;;;5.10;1.00;;;;;;5093724;28;20240;-74
2024/03/17 02:08:08;;;;;;;9.40;3.50;;;5.10;1.00;;;;;;5094360;27;20247;-75
2024/03/17 02:10:35;;;;;;;9.57;3.70;;;5.10;1.00;;;;;;5090741;28;20240;-73
2024/03/17 02:13:03;;;;;;;11.02;3.13;;;5.10;1.00;;;;;;5089074;28;20335;-73
2024/03/17 02:15:30;;;;;;;8.25;2.78;;;5.10;1.00;;;;;;5086760;28;20356;-74
2024/03/17 02:17:56;;;;;;;10.65;3.10;;;5.00;1.00;;;;;;5086804;28;20236;-74
2024/03/17 02:20:54;;;;;;;8.20;2.80;;;5.10;1.00;;;;;;5089805;27;20236;-73
2024/03/17 02:23:11;;;;;;;18.25;3.15;;;5.00;1.00;;;;;;5090018;28;20244;-73
2024/03/17 02:25:38;;;;;;;12.35;3.38;;;5.00;1.00;;;;;;5091178;28;20240;-75
2024/03/17 02:28:04;;;;;;;7.18;2.60;;;5.00;1.00;;;;;;5083431;28;20264;-74
2024/03/17 02:30:31;;;;;;;8.68;3.42;;;5.00;1.00;;;;;;5089105;28;20294;-74
2024/03/17 02:32:57;;;;;;;10.77;2.90;;;5.00;1.00;;;;;;5091317;28;20236;-74
2024/03/17 02:35:26;;;;;;;6.68;3.15;;;4.90;1.00;;;;;;5087458;28;20588;-75
2024/03/17 02:37:53;;;;;;;6.25;2.30;;;4.90;1.00;;;;;;5104032;27;20699;-74
2024/03/17 02:40:22;;;;;;;13.02;3.70;;;4.90;1.00;;;;;;5089221;27;20764;-74
2024/03/17 02:42:48;;;;;;;5.93;2.40;;;4.90;1.00;;;;;;5089719;28;20240;-77
2024/03/17 02:45:15;;;;;;;12.50;2.90;;;4.90;1.00;;;;;;5082856;28;20244;-74
2024/03/17 02:47:42;;;;;;;7.15;2.50;;;4.80;1.00;;;;;;5091283;28;20238;-74
2024/03/17 02:50:10;;;;;;;9.38;3.22;;;4.80;1.00;;;;;;5088354;28;20227;-75
2024/03/17 02:52:36;;;;;;;10.38;3.50;;;4.80;1.00;;;;;;5096579;27;20335;-77
2024/03/17 02:55:05;;;;;;;5.10;2.03;;;4.80;1.00;;;;;;5098620;27;20250;-77
2024/03/17 02:57:34;;;;;;;11.02;3.67;;;4.80;1.00;;;;;;5090662;28;20291;-76
2024/03/17 03:00:03;;;;;;;10.40;2.70;;;4.70;1.00;;;;;;5100142;27;20288;-74
2024/03/17 03:02:30;;;;;;;8.73;3.25;;;4.70;1.00;;;;;;5112757;27;20246;-74
2024/03/17 03:04:57;;;;;;;13.95;4.78;;;4.70;1.00;;;;;;5098173;27;20239;-78
2024/03/17 03:07:24;;;;;;;9.07;2.08;;;4.70;1.00;;;;;;5108692;27;20235;-77
2024/03/17 03:09:52;;;;;;;11.82;2.92;;;4.70;1.00;;;;;;5110050;27;20243;-73
2024/03/17 03:12:19;;;;;;;10.93;2.75;;;4.60;1.00;;;;;;5110280;27;20245;-77
2024/03/17 03:14:47;;;;;;;11.02;2.80;;;4.60;1.00;;;;;;5100628;27;20264;-76
2024/03/17 03:17:14;;;;;;;8.68;3.05;;;4.60;1.00;;;;;;5089059;28;20319;-76
2024/03/17 03:19:41;;;;;;;10.32;3.35;;;4.60;1.00;;;;;;5102119;27;20686;-76
2024/03/17 03:22:08;;;;;;;5.43;2.60;;;4.60;1.00;;;;;;5103520;27;20244;-77
2024/03/17 03:24:36;;;;;;;10.05;3.65;;;4.50;1.00;;;;;;5113331;27;20297;-76
2024/03/17 03:27:04;;;;;;;9.20;3.90;;;4.50;1.00;;;;;;5106247;27;20279;-76
2024/03/17 03:29:31;;;;;;;9.00;3.05;;;4.50;1.00;;;;;;5107447;27;20288;-76
2024/03/17 03:32:00;;;;;;;7.05;2.20;;;4.50;1.00;;;;;;5107985;27;20289;-78
2024/03/17 03:34:26;;;;;;;4.90;2.45;;;4.40;1.00;;;;;;5084999;28;20254;-74
2024/03/17 03:36:53;;;;;;;10.43;3.10;;;4.40;1.00;;;;;;5089406;28;21386;-76
2024/03/17 03:39:20;;;;;;;12.65;2.90;;;4.30;1.00;;;;;;5087684;28;20474;-78
2024/03/17 03:41:47;;;;;;;11.00;3.72;;;4.30;1.00;;;;;;5089506;28;20239;-77
2024/03/17 03:44:14;;;;;;;7.97;3.30;;;4.30;1.00;;;;;;5091191;28;20319;-76
2024/03/17 03:46:41;;;;;;;7.78;3.00;;;4.30;1.00;;;;;;5094944;27;20235;-77
2024/03/17 03:49:09;;;;;;;8.18;2.95;;;4.30;1.00;;;;;;5087770;28;20313;-74
2024/03/17 03:51:36;;;;;;;11.43;4.18;;;4.30;1.00;;;;;;5087863;28;20287;-76
2024/03/17 03:54:06;;;;;;;13.15;3.50;;;4.30;1.00;;;;;;5088150;28;20327;-74
2024/03/17 03:56:33;;;;;;;8.20;2.88;;;4.30;1.00;;;;;;5087625;28;20232;-75
2024/03/17 03:59:00;;;;;;;12.90;3.22;;;4.30;1.00;;;;;;5087283;27;20327;-76
2024/03/17 04:01:27;;;;;;;8.70;2.80;;;4.30;1.00;;;;;;5085311;28;20264;-75
2024/03/17 04:03:54;;;;;;;8.73;2.80;;;4.30;1.00;;;;;;5099757;27;20251;-75
2024/03/17 04:06:22;;;;;;;7.40;2.35;;;4.20;1.00;;;;;;5104377;27;20289;-75
2024/03/17 04:08:50;;;;;;;12.30;3.03;;;4.20;1.00;;;;;;5102425;27;20253;-76
2024/03/17 04:11:17;;;;;;;8.85;3.65;;;4.20;1.00;;;;;;5097315;27;20340;-75
2024/03/17 04:13:43;;;;;;;10.13;3.15;;;4.20;1.00;;;;;;5085468;28;20241;-76
2024/03/17 04:16:12;;;;;;;9.65;3.33;;;4.20;1.00;;;;;;5095947;27;20789;-76
2024/03/17 04:18:41;;;;;;;9.82;3.00;;;4.20;1.00;;;;;;5103015;27;20273;-77
2024/03/17 04:21:08;;;;;;;12.98;2.92;;;4.20;1.00;;;;;;5088695;27;20330;-76
2024/03/17 04:23:37;;;;;;;10.02;3.08;;;4.10;1.00;;;;;;5096023;27;20740;-75
2024/03/17 04:26:07;;;;;;;6.32;2.85;;;4.10;1.00;;;;;;5104508;27;20234;-73
2024/03/17 04:28:35;;;;;;;7.32;2.92;;;4.10;1.00;;;;;;5086069;28;20246;-75
2024/03/17 04:31:05;;;;;;;11.27;2.97;;;4.10;1.00;;;;;;5085611;28;20247;-75
2024/03/17 04:33:33;;;;;;;9.40;4.00;;;4.10;1.00;;;;;;5086771;28;20271;-74
2024/03/17 04:36:00;;;;;;;8.30;2.80;;;4.10;1.00;;;;;;5087875;28;20322;-77
2024/03/17 04:38:27;;;;;;;9.75;3.13;;;4.10;1.00;;;;;;5105847;27;20355;-77
2024/03/17 04:41:04;;;;;;;9.60;3.45;;;4.10;1.00;;;;;;5089122;28;20240;-75
2024/03/17 04:43:32;;;;;;;8.13;3.33;;;4.10;1.00;;;;;;5107626;27;20296;-74
2024/03/17 04:46:04;;;;;;;8.43;2.45;;;4.10;1.00;;;;;;5100131;27;20243;-77
2024/03/17 04:48:31;;;;;;;9.25;3.22;;;4.10;1.00;;;;;;5090591;28;20285;-76
2024/03/17 04:50:59;;;;;;;8.93;3.47;;;4.10;1.00;;;;;;5090994;28;20250;-76
2024/03/17 04:53:26;;;;;;;10.45;3.17;;;4.00;1.00;;;;;;5096132;27;20236;-76
2024/03/17 04:56:02;;;;;;;11.10;2.53;;;4.00;1.00;;;;;;5095709;27;20239;-77
2024/03/17 04:58:29;;;;;;;9.05;3.47;;;4.00;1.00;;;;;;5109256;27;20259;-75
2024/03/17 05:00:56;;;;;;;9.32;3.70;;;4.00;1.00;;;;;;5103964;27;20258;-76
2024/03/17 05:03:24;;;;;;;11.35;3.20;;;3.90;1.00;;;;;;5102605;27;20902;-75
2024/03/17 05:06:01;;;;;;;6.95;2.53;;;3.90;1.00;;;;;;5104620;27;20671;-76
2024/03/17 05:08:28;;;;;;;10.88;2.95;;;3.90;1.00;;;;;;5104918;27;20239;-75
2024/03/17 05:10:58;;;;;;;10.75;3.95;;;3.90;1.00;;;;;;5105906;27;20243;-73
2024/03/17 05:13:26;;;;;;;16.58;3.67;;;3.90;1.00;;;;;;5084368;28;20239;-74
2024/03/17 05:15:53;;;;;;;5.93;2.92;;;3.90;1.00;;;;;;5089955;28;20265;-73
2024/03/17 05:18:22;;;;;;;10.48;3.10;;;3.90;1.00;;;;;;5093244;27;20286;-73
2024/03/17 05:20:58;;;;;;;15.15;3.40;;;3.80;1.00;;;;;;5088901;27;20242;-74
2024/03/17 05:23:26;;;;;;;9.50;2.92;;;3.80;1.00;;;;;;5084925;27;20352;-75
2024/03/17 05:25:53;;;;;;;6.60;3.38;;;3.80;1.00;;;;;;5083084;28;20326;-74
2024/03/17 05:28:20;;;;;;;10.02;3.67;;;3.90;1.00;;;;;;5084462;27;20735;-72
2024/03/17 05:30:50;;;;;;;8.27;2.90;;;3.90;1.00;;;;;;5087235;28;20309;-74
2024/03/17 05:33:17;;;;;;;12.02;4.13;;;3.90;1.00;;;;;;5097771;27;20724;-75
2024/03/17 05:35:52;;;;;;;13.70;4.05;;;3.90;1.00;;;;;;5077590;28;20246;-73
2024/03/17 05:38:19;;;;;;;14.45;3.25;;;3.90;1.00;;;;;;5084729;28;20981;-74
2024/03/17 05:40:54;;;;;;;10.35;2.97;;;3.90;1.00;;;;;;5098697;27;20379;-73
2024/03/17 05:43:21;;;;;;;11.32;3.08;;;3.90;1.00;;;;;;5090816;28;20236;-76
2024/03/17 05:45:49;;;;;;;9.02;2.70;;;3.90;1.00;;;;;;5091753;28;20228;-75
2024/03/17 05:48:16;;;;;;;6.85;2.35;;;3.90;1.00;;;;;;5087937;27;20240;-72
2024/03/17 05:50:43;;;;;;;7.38;2.40;;;3.90;1.00;;;;;;5093208;27;20330;-73
2024/03/17 05:53:10;;;;;;;9.63;3.00;;;3.90;1.00;;;;;;5107966;27;20310;-74
2024/03/17 05:55:37;;;;;;;11.15;2.85;;;3.90;1.00;;;;;;5104239;27;20237;-74
2024/03/17 05:58:08;;;;;;;11.95;4.03;;;4.00;1.00;;;;;;5109688;27;20266;-74
2024/03/17 06:00:36;;;;;;;7.50;2.58;;;4.00;1.00;;;;;;5089331;28;20293;-73
2024/03/17 06:03:06;;;;;;;9.82;3.05;;;4.00;1.00;;;;;;5107959;27;20313;-73
2024/03/17 06:05:34;;;;;;;11.65;2.90;;;4.00;1.00;;;;;;5110187;27;20237;-73
2024/03/17 06:08:02;;;;;;;4.43;2.20;;;4.10;1.00;;;;;;5091019;28;20233;-74
2024/03/17 06:10:29;;;;;;;14.80;3.22;;;4.10;1.00;;;;;;5104626;27;20702;-73
2024/03/17 06:12:57;;;;;;;10.38;2.67;;;4.20;1.00;;;;;;5099339;27;20793;-73
2024/03/17 06:15:24;;;;;;;9.73;2.85;;;4.30;1.00;;;;;;5087719;28;20243;-73
2024/03/17 06:17:52;;;;;;;10.68;3.50;;;4.30;1.00;;;;;;5086414;28;21122;-74
2024/03/17 06:20:20;;;;;;;10.52;3.28;;;4.40;1.00;;;;;;5086751;28;20315;-73
2024/03/17 06:22:47;;;;;;;7.38;2.20;;;4.40;1.00;;;;;;5091237;28;20232;-75
2024/03/17 06:25:15;;;;;;;10.70;3.70;;;4.40;1.00;;;;;;5093849;28;20726;-72
2024/03/17 06:27:42;;;;;;;7.18;3.20;;;4.50;1.00;;;;;;5091654;28;20239;-72
2024/03/17 06:30:13;;;;;;;14.88;3.67;;;4.50;1.00;;;;;;5087502;28;21042;-72
2024/03/17 06:32:41;;;;;;;13.55;3.83;;;4.50;1.00;;;;;;5085988;28;20264;-72
2024/03/17 06:35:08;;;;;;;10.32;3.08;;;4.60;1.00;;;;;;5085353;28;20240;-73
2024/03/17 06:37:39;;;;;;;9.60;2.67;;;4.70;1.00;;;;;;5085112;28;20248;-71
2024/03/17 06:40:11;;;;;;;7.68;2.70;;;4.70;1.00;;;;;;5083216;28;20663;-72
2024/03/17 06:42:38;;;;;;;8.20;2.40;;;4.80;1.00;;;;;;5085207;28;20243;-71
2024/03/17 06:45:08;;;;;;;10.32;2.60;;;4.80;1.00;;;;;;5084551;28;20294;-72
2024/03/17 06:47:34;;;;;;;7.65;3.05;;;4.90;1.00;;;;;;5088417;27;20235;-72
2024/03/17 06:50:03;;;;;;;18.27;5.20;;;5.00;1.00;;;;;;5090739;27;20659;-71
2024/03/17 06:52:30;;;;;;;5.50;2.75;;;5.00;1.00;;;;;;5078827;28;20247;-72
2024/03/17 06:54:58;;;;;;;10.43;3.15;;;5.00;1.00;;;;;;5081027;28;20243;-72
2024/03/17 06:57:25;;;;;;;11.52;3.80;;;5.10;1.00;;;;;;5081705;28;20999;-72
2024/03/17 06:59:53;;;;;;;9.18;3.03;;;5.10;1.00;;;;;;5081908;28;20235;-73
2024/03/17 07:02:20;;;;;;;8.82;3.10;;;5.20;1.00;;;;;;5083932;28;21025;-72
2024/03/17 07:04:47;;;;;;;12.93;3.35;;;5.30;1.00;;;;;;5089858;27;20448;-73
2024/03/17 07:07:15;;;;;;;9.90;3.20;;;5.30;1.00;;;;;;5101127;27;20262;-72
2024/03/17 07:09:42;;;;;;;8.57;4.28;;;5.40;1.00;;;;;;5090936;27;20274;-71
2024/03/17 07:12:11;;;;;;;6.57;3.15;;;5.50;1.00;;;;;;5103096;27;20231;-72
2024/03/17 07:14:38;;;;;;;10.82;3.50;;;5.70;1.00;;;;;;5107556;27;20798;-71
2024/03/17 07:17:05;;;;;;;10.98;3.10;;;5.80;1.00;;;;;;5093634;27;20986;-72
2024/03/17 07:19:32;;;;;;;9.60;3.40;;;5.90;1.00;;;;;;5086268;28;20300;-71
2024/03/17 07:21:59;;;;;;;11.57;3.63;;;6.10;1.00;;;;;;5086327;27;20327;-72
2024/03/17 07:24:29;;;;;;;13.50;4.00;;;6.30;1.00;;;;;;5081609;28;20273;-72
2024/03/17 07:26:57;;;;;;;10.52;2.28;;;6.40;1.00;;;;;;5082197;28;20242;-72
2024/03/17 07:29:25;;;;;;;7.45;2.50;;;6.60;1.00;;;;;;5090200;27;20731;-72
2024/03/17 07:31:52;;;;;;;13.18;3.92;;;6.80;1.00;;;;;;5099094;27;20236;-71
2024/03/17 07:34:19;;;;;;;7.78;3.22;;;7.00;1.00;;;;;;5103566;27;20252;-73
2024/03/17 07:36:47;;;;;;;6.07;3.00;;;7.20;1.00;;;;;;5102814;27;21098;-74
2024/03/17 07:39:14;;;;;;;31.85;29.35;;;7.30;1.00;;;;;;5091188;27;20244;-74
2024/03/17 07:41:41;;;;;;;10.25;3.45;;;7.50;1.00;;;;;;5082116;28;20330;-73
2024/03/17 07:44:08;;;;;;;10.30;3.03;;;7.60;1.00;;;;;;5093434;27;20256;-73
2024/03/17 07:46:36;;;;;;;6.73;3.13;;;7.70;1.00;;;;;;5087889;27;21012;-72
2024/03/17 07:49:03;;;;;;;8.98;3.55;;;7.90;1.00;;;;;;5089725;27;20493;-74
2024/03/17 07:51:30;;;;;;;8.10;2.70;;;7.90;1.00;;;;;;5090590;27;20241;-75
2024/03/17 07:53:57;;;;;;;8.93;3.33;;;7.80;1.00;;;;;;5086160;28;20414;-76
2024/03/17 07:56:25;;;;;;;8.33;3.13;;;7.90;1.00;;;;;;5082994;28;22266;-76
2024/03/17 07:58:52;;;;;;;7.72;3.03;;;8.00;1.00;;;;;;5086028;28;20461;-77
2024/03/17 08:01:19;;;;;;;10.07;3.37;;;7.90;1.00;;;;;;5082543;27;20345;-75
2024/03/17 08:03:49;;;;;;;6.93;2.67;;;7.80;1.00;;;;;;5103558;27;20459;-74
2024/03/17 08:06:16;;;;;;;9.57;3.53;;;7.90;1.00;;;;;;5087949;28;21331;-74
2024/03/17 08:08:43;;;;;;;7.30;2.90;;;8.00;1.00;;;;;;5100517;27;21060;-75
2024/03/17 08:11:10;;;;;;;10.47;2.63;;;8.20;1.00;;;;;;5102446;27;21393;-74
2024/03/17 08:13:37;;;;;;;6.90;2.80;;;8.10;1.00;;;;;;5101502;27;20463;-74
2024/03/17 08:16:06;;;;;;;10.33;2.87;;;8.10;1.00;;;;;;5095492;27;20631;-72
2024/03/17 08:18:33;;;;;;;5.53;2.57;;;8.00;1.00;;;;;;5093962;28;20529;-72
2024/03/17 08:21:06;;;;;;;11.27;2.23;;;8.00;1.00;;;;;;5084665;28;20545;-74
2024/03/17 08:23:33;;;;;;;12.07;2.70;;;8.00;1.00;;;;;;5092195;27;20505;-74
2024/03/17 08:26:01;;;;;;;7.43;2.70;;;8.10;1.00;;;;;;5084680;28;21070;-73
2024/03/17 08:28:28;;;;;;;11.75;3.25;;;8.10;1.00;;;;;;5084231;28;20950;-73
2024/03/17 08:30:56;;;;;;;10.07;4.30;;;8.20;1.00;;;;;;5081022;28;20330;-73
2024/03/17 08:33:24;;;;;;;7.17;2.90;;;8.50;1.00;;;;;;5086744;28;21269;-74
2024/03/17 08:35:55;;;;;;;11.23;2.97;;;8.60;1.00;;;;;;5085240;28;20466;-73
2024/03/17 08:38:24;;;;;;;10.93;3.07;;;8.60;1.00;;;;;;5096269;27;20533;-72
2024/03/17 08:40:51;;;;;;;8.23;4.67;;;8.90;1.00;;;;;;5096017;27;20457;-72
2024/03/17 08:43:18;;;;;;;9.53;4.30;;;9.20;1.00;;;;;;5088901;27;20529;-71
2024/03/17 08:45:45;;;;;;;7.93;3.33;;;9.50;1.00;;;;;;5083008;28;20512;-72
2024/03/17 08:48:12;;;;;;;9.10;3.00;;;9.70;1.00;;;;;;5097172;27;20426;-73
2024/03/17 08:50:40;;;;;;;4.50;2.40;;;10.00;1.00;;;;;;5098912;27;21091;-73
2024/03/17 08:53:07;;;;;;;9.10;3.40;;;10.20;1.00;;;;;;5089867;27;20464;-72
2024/03/17 08:55:36;;;;;;;4.97;2.60;;;10.10;1.00;;;;;;5084495;28;20470;-74
2024/03/17 08:58:02;;;;;;;10.00;2.57;;;10.00;1.00;;;;;;5086075;28;20495;-75
2024/03/17 09:00:30;;;;;;;6.50;2.30;;;9.90;1.00;;;;;;5086948;28;21370;-74
2024/03/17 09:02:57;;;;;;;4.90;2.47;;;9.50;1.00;;;;;;5094376;27;20455;-73
2024/03/17 09:05:24;;;;;;;9.60;3.13;;;9.40;1.00;;;;;;5092940;27;20458;-73
2024/03/17 09:07:51;;;;;;;10.47;3.10;;;9.60;1.00;;;;;;5084656;28;20461;-72
2024/03/17 09:10:18;;;;;;;7.00;2.43;;;9.50;1.00;;;;;;5083668;28;21303;-71
2024/03/17 09:12:47;;;;;;;9.70;2.90;;;9.50;1.00;;;;;;5084125;27;20455;-72
2024/03/17 09:15:14;;;;;;;10.63;2.53;;;9.60;1.00;;;;;;5089504;28;20504;-74
2024/03/17 09:17:41;;;;;;;8.27;2.87;;;9.70;1.00;;;;;;5087274;28;20439;-73
2024/03/17 09:20:11;;;;;;;6.43;2.30;;;10.20;1.00;;;;;;5084777;28;20559;-74
2024/03/17 09:22:39;;;;;;;5.17;2.30;;;11.30;1.00;;;;;;5089182;28;21168;-73
2024/03/17 09:25:08;;;;;;;4.40;1.90;;;12.60;1.00;;;;;;5085263;28;20878;-74
2024/03/17 09:27:36;;;;;;;4.33;2.03;;;13.90;1.00;;;;;;5085979;27;21369;-72
2024/03/17 09:30:09;;;;;;;3.60;1.93;;;15.10;1.00;;;;;;5091668;28;20541;-74
2024/03/17 09:32:36;;;;;;;5.47;2.00;;;16.20;1.00;;;;;;5089944;27;20453;-72
2024/03/17 09:35:04;;;;;;;4.03;2.07;;;16.80;1.00;;;;;;5094210;27;20504;-73
2024/03/17 09:37:32;;;;;;;3.73;2.00;;;16.90;1.00;;;;;;5086495;28;20534;-73
2024/03/17 09:39:59;;;;;;;7.77;2.20;;;17.70;1.00;;;;;;5096008;27;20490;-74
2024/03/17 09:42:28;;;;;;;4.70;1.87;;;18.70;1.00;;;;;;5094995;27;22120;-72
2024/03/17 09:44:56;;;;;;;5.10;1.67;;;17.70;1.00;;;;;;5089582;28;20889;-72
2024/03/17 09:47:26;;;;;;;5.93;2.60;;;16.00;1.00;;;;;;5097560;27;20550;-71
2024/03/17 09:49:54;;;;;;;4.13;2.20;;;14.20;1.00;;;;;;5108298;27;20467;-72
2024/03/17 09:52:22;;;;;;;5.77;2.07;;;13.40;1.00;;;;;;5103041;27;20463;-73
2024/03/17 09:54:55;;;;;;;4.83;3.00;;;12.90;1.00;;;;;;5109825;27;20479;-72
2024/03/17 09:57:24;;;;;;;4.60;2.40;;;12.40;1.00;;;;;;5103977;27;20470;-70
2024/03/17 09:59:54;;;;;;;4.50;2.50;;;12.10;1.00;;;;;;5104664;27;20463;-74
2024/03/17 10:02:22;;;;;;;3.60;2.57;;;12.20;1.00;;;;;;5105972;27;20634;-71
2024/03/17 10:04:52;;;;;;;5.40;2.13;;;12.50;1.00;;;;;;5088354;27;20469;-72
2024/03/17 10:07:19;;;;;;;3.90;2.10;;;13.80;1.00;;;;;;5086380;28;20476;-71
2024/03/17 10:09:46;;;;;;;5.50;2.47;;;16.00;1.00;;;;;;5095460;27;20477;-71
2024/03/17 10:12:27;;;;;;;6.63;3.57;;;17.60;1.00;;;;;;5087999;28;20453;-70
2024/03/17 10:15:01;;;;;;;7.90;1.90;;;16.50;1.00;;;;;;5087613;28;20481;-70
2024/03/17 10:17:32;;;;;;;3.97;2.70;;;15.60;1.00;;;;;;5102454;27;20548;-70
2024/03/17 10:20:17;;;;;;;7.30;2.87;;;15.50;1.00;;;;;;5108364;27;20517;-72
2024/03/17 10:23:00;;;;;;;2.40;1.97;;;14.30;1.00;;;;;;5093850;27;20476;-73
2024/03/17 10:25:28;;;;;;;4.53;2.20;;;15.20;1.00;;;;;;5084104;28;21005;-70
2024/03/17 10:27:56;;;;;;;4.47;2.20;;;17.20;1.00;;;;;;5085361;28;20520;-71
2024/03/17 10:30:25;;;;;;;5.03;2.77;;;19.20;1.00;;;;;;5096149;27;20460;-74
2024/03/17 10:32:57;;;;;;;7.47;2.30;;;19.90;1.00;;;;;;5107620;27;20573;-71
2024/03/17 10:35:38;;;;;;;4.53;1.73;;;18.00;1.00;;;;;;5102815;27;20463;-73
2024/03/17 10:38:06;;;;;;;3.83;2.23;;;18.40;1.00;;;;;;5082425;28;20458;-72
2024/03/17 10:40:36;;;;;;;6.20;3.07;;;18.80;1.00;;;;;;5084450;27;20516;-73
2024/03/17 10:43:03;;;;;;;5.20;2.77;;;17.80;1.00;;;;;;5081979;28;20459;-71
2024/03/17 10:45:31;;;;;;;3.77;2.17;;;16.70;1.00;;;;;;5081331;28;20968;-73
2024/03/17 10:48:01;;;;;;;5.13;2.37;;;16.30;1.00;;;;;;5087281;28;21364;-71
2024/03/17 10:50:31;;;;;;;4.67;2.30;;;15.50;1.00;;;;;;5092481;27;20462;-70
2024/03/17 10:53:08;;;;;;;5.17;2.70;;;16.00;1.00;;;;;;5083740;28;20459;-73
2024/03/17 10:55:43;;;;;;;3.30;2.10;;;17.90;1.00;;;;;;5093538;27;20506;-71
2024/03/17 10:58:22;;;;;;;7.00;2.43;;;20.10;1.00;;;;;;5083023;28;20465;-72
2024/03/17 11:00:51;;;;;;;4.10;1.80;;;21.70;1.00;;;;;;5084933;28;20888;-72
2024/03/17 11:03:20;;;;;;;3.00;1.83;;;22.00;1.00;;;;;;5093230;27;20488;-72
2024/03/17 11:05:49;;;;;;;3.40;2.43;;;20.60;1.00;;;;;;5088615;27;20491;-72
2024/03/17 11:08:19;;;;;;;5.30;2.30;;;19.70;1.00;;;;;;5084606;27;20487;-72
2024/03/17 11:10:52;;;;;;;4.10;2.00;;;18.70;1.00;;;;;;5083064;28;21176;-73
2024/03/17 11:13:27;;;;;;;5.33;1.90;;;17.80;1.00;;;;;;5082239;28;20462;-71
2024/03/17 11:15:55;;;;;;;5.70;1.83;;;18.10;1.00;;;;;;5087326;28;20514;-73
2024/03/17 11:18:39;;;;;;;4.00;1.93;;;20.10;1.00;;;;;;5086444;28;20469;-72
2024/03/17 11:21:10;;;;;;;4.00;1.63;;;21.40;1.00;;;;;;5085464;27;20466;-75
2024/03/17 11:23:39;;;;;;;5.13;1.67;;;21.80;1.00;;;;;;5088691;27;20467;-72
2024/03/17 11:26:08;;;;;;;3.30;2.03;;;22.80;1.00;;;;;;5087375;27;20902;-73
2024/03/17 11:28:53;;;;;;;3.90;1.93;;;22.00;1.00;;;;;;5106542;27;20430;-73
2024/03/17 11:31:43;;;;;;;3.60;1.97;;;19.60;1.00;;;;;;5102152;27;20465;-73
2024/03/17 11:34:33;;;;;;;4.30;1.57;;;17.40;1.00;;;;;;5105585;27;20515;-72
2024/03/17 11:37:03;;;;;;;2.50;1.73;;;18.70;1.00;;;;;;5103112;27;20473;-74
2024/03/17 11:39:51;;;;;;;2.23;1.40;;;21.20;1.00;;;;;;5083597;27;20581;-73
2024/03/17 11:42:18;;;;;;;1.70;1.30;;;23.60;1.00;;;;;;5104525;27;20458;-73
2024/03/17 11:44:55;;;;;;;2.00;1.50;;;24.70;1.00;;;;;;5084445;28;20454;-73
2024/03/17 11:47:22;;;;;;;3.83;1.70;;;25.00;1.00;;;;;;5081508;28;20462;-72
2024/03/17 11:49:51;;;;;;;4.47;1.80;;;24.80;1.00;;;;;;5083869;28;20485;-74
2024/03/17 11:52:18;;;;;;;2.40;1.40;;;24.80;1.00;;;;;;5082748;28;20473;-75
2024/03/17 11:54:45;;;;;;;4.30;1.70;;;24.90;1.00;;;;;;5083765;27;20455;-74
2024/03/17 11:57:16;;;;;;;3.13;1.33;;;25.50;1.00;;;;;;5084921;27;20478;-73
2024/03/17 11:59:45;;;;;;;3.20;1.23;;;25.60;1.00;;;;;;5083291;28;20455;-72
2024/03/17 12:02:19;;;;;;;2.40;1.43;;;24.60;1.00;;;;;;5083682;28;20453;-73
2024/03/17 12:04:46;;;;;;;4.77;1.80;;;25.00;1.00;;;;;;5081317;28;20453;-76
2024/03/17 12:07:15;;;;;;;3.63;1.90;;;26.10;1.00;;;;;;5083818;27;20474;-72
2024/03/17 12:09:42;;;;;;;2.73;1.60;;;24.90;1.00;;;;;;5087571;27;20541;-73
2024/03/17 12:12:10;;;;;;;4.73;1.70;;;24.30;1.00;;;;;;5085200;28;21620;-73
2024/03/17 12:14:39;;;;;;;1.97;1.60;;;25.10;1.00;;;;;;5082243;28;20454;-74
2024/03/17 12:17:08;;;;;;;2.90;1.53;;;26.70;1.00;;;;;;5081207;28;20555;-74
2024/03/17 12:19:34;;;;;;;4.37;2.13;;;26.70;1.00;;;;;;5090993;27;20456;-74
2024/03/17 12:22:03;;;;;;;3.37;1.80;;;25.70;1.00;;;;;;5104093;27;20905;-72
2024/03/17 12:24:30;;;;;;;2.90;1.40;;;26.40;1.00;;;;;;5098781;27;20965;-74
2024/03/17 12:26:59;;;;;;;2.67;2.00;;;25.70;1.00;;;;;;5103752;27;20441;-74
2024/03/17 12:29:30;;;;;;;3.60;2.17;;;25.60;1.00;;;;;;5103388;27;20580;-74
2024/03/17 12:32:00;;;;;;;4.40;2.10;;;25.00;1.00;;;;;;5102771;27;20480;-74
2024/03/17 12:34:28;;;;;;;3.03;1.53;;;25.40;1.00;;;;;;5096479;27;20482;-74
2024/03/17 12:36:56;;;;;;;4.00;3.00;;;25.50;1.00;;;;;;5089558;27;20630;-73
2024/03/17 12:39:23;;;;;;;5.63;1.87;;;25.50;1.00;;;;;;5082156;28;21166;-75
2024/03/17 12:42:04;;;;;;;2.73;1.70;;;26.60;1.00;;;;;;5082882;28;20937;-72
2024/03/17 12:44:30;;;;;;;4.43;1.63;;;25.30;1.00;;;;;;5079680;28;20421;-74
2024/03/17 12:47:01;;;;;;;5.10;1.70;;;23.30;1.00;;;;;;5081435;28;20466;-73
2024/03/17 12:49:28;;;;;;;3.90;2.27;;;21.60;1.00;;;;;;5091641;27;20470;-74
2024/03/17 12:51:55;;;;;;;9.33;2.23;;;21.50;1.00;;;;;;5078102;28;21049;-73
2024/03/17 12:54:23;;;;;;;4.20;2.10;;;22.10;1.00;;;;;;5082428;28;20532;-73
2024/03/17 13:02:42;;;;;;;14.57;12.07;;;19.00;1.00;;;;;;5102966;27;21005;-73
2024/03/17 13:05:16;;;;;;;4.97;2.03;;;17.90;1.00;;;;;;5104003;27;20492;-73
2024/03/17 13:07:46;;;;;;;7.03;2.27;;;17.10;1.00;;;;;;5105001;27;20467;-72
2024/03/17 13:10:16;;;;;;;3.73;1.70;;;16.50;1.00;;;;;;5084151;27;20463;-74
2024/03/17 13:12:44;;;;;;;4.10;1.67;;;16.30;1.00;;;;;;5084859;28;20556;-75